Terminal Aerodrome Forecast
Issued by NWS

Current Version | Previous Version | Text Only | Print | Product List | Glossary On
Versions: 1 2 3 4 5 6 7 8 9 10 11 12 13 14 15 16 17 18 19 20 21 22 23 24 25
000
FTAK31 PAFA 221739
TAFAOT
TAF
PAOT 221739Z 2218/2318 22018KT 6SM -RA SCT009 BKN011 OVC021
     FM230000 24016KT 6SM -SHRA BR BKN015 OVC025
     FM230600 27016KT 6SM BR VCSH OVC025
     FM231200 30009KT P6SM BKN120=

USA.gov is the U.S. government's official web portal to all federal, state and local government web resources and services.